Time;durP1;ratioP1;P1;durP2;ratioP2;P2;SDS_P1;SDS_P2;PMS_P1;PMS_P2;Temp;Humidity;BMP_temperature;BMP_pressure;BME280_temperature;BME280_humidity;BME280_pressure;Samples;Min_cycle;Max_cycle;Signal;HPM_P1;HPM_P2
2022/09/01 00:01:47;;;;;;;7.70;3.17;;;19.80;99.70;;;;;;5037613;28;20018;-69
2022/09/01 00:04:18;;;;;;;4.95;2.80;;;19.70;99.70;;;;;;5045079;28;20029;-69
2022/09/01 00:06:45;;;;;;;6.57;2.90;;;19.70;99.60;;;;;;5039150;28;20016;-68
2022/09/01 00:09:14;;;;;;;4.90;2.92;;;19.60;99.90;;;;;;5038498;28;20322;-69
2022/09/01 00:11:42;;;;;;;4.07;2.40;;;19.60;99.90;;;;;;5048586;28;20402;-68
2022/09/01 00:14:09;;;;;;;5.43;2.30;;;19.60;99.90;;;;;;5046806;28;20045;-69
2022/09/01 00:16:35;;;;;;;4.07;2.28;;;19.60;99.90;;;;;;5043009;28;20017;-68
2022/09/01 00:19:02;;;;;;;3.97;2.80;;;19.60;99.90;;;;;;5047966;28;20021;-69
2022/09/01 00:21:31;;;;;;;6.93;2.50;;;19.50;99.90;;;;;;5048368;28;20071;-68
2022/09/01 00:23:58;;;;;;;3.33;2.17;;;19.50;99.90;;;;;;5045181;28;20913;-69
2022/09/01 00:26:24;;;;;;;3.22;2.00;;;19.50;99.90;;;;;;5047328;28;20343;-69
2022/09/01 00:28:50;;;;;;;4.75;1.77;;;19.40;99.90;;;;;;5042264;28;20087;-69
2022/09/01 00:31:17;;;;;;;3.83;1.90;;;19.40;99.90;;;;;;5039555;28;20029;-68
2022/09/01 00:33:43;;;;;;;3.35;1.70;;;19.40;99.90;;;;;;5049505;28;20120;-68
2022/09/01 00:36:09;;;;;;;2.53;1.42;;;19.30;99.70;;;;;;5045004;28;20060;-68
2022/09/01 00:38:35;;;;;;;4.15;1.98;;;19.40;99.90;;;;;;5043144;28;20469;-68
2022/09/01 00:41:01;;;;;;;1.50;1.35;;;19.30;99.90;;;;;;5025694;28;20449;-68
2022/09/01 00:43:41;;;;;;;1.98;1.67;;;19.30;99.90;;;;;;5040951;28;20060;-68
2022/09/01 00:46:13;;;;;;;4.28;1.80;;;19.20;99.70;;;;;;5046870;28;20028;-69
2022/09/01 00:48:39;;;;;;;;;;;19.20;99.90;;;;;;5047224;28;20095;-69
2022/09/01 00:51:08;;;;;;;5.25;1.42;;;19.20;99.70;;;;;;5025758;28;20364;-69
2022/09/01 00:53:35;;;;;;;2.83;1.60;;;19.10;99.80;;;;;;5039619;28;20083;-72
2022/09/01 00:56:02;;;;;;;3.15;1.58;;;19.10;99.90;;;;;;5046870;28;20029;-68
2022/09/01 00:58:29;;;;;;;2.45;1.30;;;19.10;99.90;;;;;;5044466;28;20040;-68
2022/09/01 01:00:55;;;;;;;3.78;1.65;;;19.00;99.80;;;;;;5043759;28;20378;-68
2022/09/01 01:03:22;;;;;;;5.20;1.70;;;19.00;99.80;;;;;;5047569;28;20021;-68
2022/09/01 01:05:56;;;;;;;3.08;1.90;;;18.90;99.90;;;;;;5038367;28;20033;-69
2022/09/01 01:08:33;;;;;;;2.85;1.60;;;18.80;99.90;;;;;;5038471;28;20481;-68
2022/09/01 01:11:01;;;;;;;2.05;1.27;;;18.90;99.80;;;;;;5047581;28;20040;-68
2022/09/01 01:13:28;;;;;;;2.63;1.52;;;18.80;99.90;;;;;;5041557;28;20060;-69
2022/09/01 01:15:54;;;;;;;2.60;1.75;;;18.80;99.90;;;;;;5035858;28;20090;-69
2022/09/01 01:18:20;;;;;;;5.50;1.63;;;18.80;99.90;;;;;;5050044;28;20499;-69
2022/09/01 01:23:40;;;;;;;4.60;1.85;;;18.70;99.90;;;;;;5048267;28;20036;-69
2022/09/01 01:26:09;;;;;;;4.45;1.67;;;18.70;99.90;;;;;;5038384;28;20040;-69
2022/09/01 01:28:40;;;;;;;3.85;1.80;;;18.70;99.90;;;;;;5046668;28;20079;-68
2022/09/01 01:31:11;;;;;;;5.13;2.33;;;18.60;99.90;;;;;;5040735;28;20049;-69
2022/09/01 01:33:47;;;;;;;4.95;2.25;;;18.60;99.90;;;;;;5041952;28;20021;-69
2022/09/01 01:36:35;;;;;;;4.82;2.17;;;18.60;99.90;;;;;;5044150;28;20042;-68
2022/09/01 01:39:15;;;;;;;3.60;1.75;;;18.60;99.90;;;;;;5044093;28;20091;-69
2022/09/01 01:41:44;;;;;;;4.60;2.90;;;18.60;99.90;;;;;;5048164;28;20024;-69
2022/09/01 01:44:12;;;;;;;5.60;3.03;;;18.60;99.90;;;;;;5038617;28;20032;-68
2022/09/01 01:46:42;;;;;;;5.57;3.42;;;18.50;99.90;;;;;;5048922;28;20028;-69
2022/09/01 01:49:14;;;;;;;5.85;3.35;;;18.50;99.90;;;;;;5052113;28;20037;-69
2022/09/01 01:51:40;;;;;;;6.32;3.65;;;18.50;99.90;;;;;;5034462;28;20112;-68
2022/09/01 01:54:06;;;;;;;7.80;3.83;;;18.50;99.90;;;;;;5049295;28;20128;-68
2022/09/01 01:56:38;;;;;;;11.13;4.55;;;18.40;99.90;;;;;;5050650;28;20025;-68
2022/09/01 01:59:06;;;;;;;8.47;4.63;;;18.40;99.90;;;;;;5051925;28;20053;-68
2022/09/01 02:01:32;;;;;;;11.85;4.93;;;18.30;99.90;;;;;;5053622;28;20490;-68
2022/09/01 02:03:59;;;;;;;8.35;5.22;;;18.30;99.90;;;;;;5056070;28;20025;-68
2022/09/01 02:06:26;;;;;;;8.75;5.55;;;18.30;99.90;;;;;;5054961;28;20495;-68
2022/09/01 02:09:02;;;;;;;10.77;5.82;;;18.30;99.90;;;;;;5055714;28;20044;-68
2022/09/01 02:11:32;;;;;;;11.57;6.63;;;18.30;99.90;;;;;;5050113;28;20056;-68
2022/09/01 02:13:58;;;;;;;11.70;6.20;;;18.30;99.90;;;;;;5037433;28;20270;-68
2022/09/01 02:16:27;;;;;;;10.15;6.35;;;18.30;99.90;;;;;;5051356;28;20108;-68
2022/09/01 02:18:53;;;;;;;12.30;5.07;;;18.20;99.90;;;;;;5037192;28;20121;-68
2022/09/01 02:21:21;;;;;;;9.45;5.82;;;18.20;99.90;;;;;;5048507;28;20481;-68
2022/09/01 02:23:59;;;;;;;12.38;7.20;;;18.20;99.90;;;;;;5049536;28;20480;-68
2022/09/01 02:26:32;;;;;;;15.02;7.32;;;18.10;99.90;;;;;;5052730;28;20477;-68
2022/09/01 02:29:03;;;;;;;15.82;9.27;;;18.10;99.90;;;;;;5052305;28;20029;-68
2022/09/01 02:31:31;;;;;;;19.65;8.68;;;18.10;99.90;;;;;;5033366;28;20079;-68
2022/09/01 02:33:57;;;;;;;18.77;9.40;;;18.00;99.90;;;;;;5050804;28;20076;-68
2022/09/01 02:36:24;;;;;;;17.83;10.20;;;18.00;99.90;;;;;;5050647;28;20041;-68
2022/09/01 02:38:51;;;;;;;18.75;10.45;;;18.00;99.90;;;;;;5057712;28;20470;-68
2022/09/01 02:41:19;;;;;;;22.88;10.57;;;18.00;99.90;;;;;;5049995;28;20039;-68
2022/09/01 02:43:45;;;;;;;16.35;9.73;;;17.90;99.90;;;;;;5050415;28;20021;-68
2022/09/01 02:46:13;;;;;;;17.58;10.43;;;17.90;99.90;;;;;;5049172;28;20538;-68
2022/09/01 02:48:42;;;;;;;21.08;11.27;;;17.80;99.90;;;;;;5032649;28;20585;-69
2022/09/01 02:51:14;;;;;;;21.55;11.70;;;17.80;99.90;;;;;;5045178;28;20025;-68
2022/09/01 02:53:41;;;;;;;22.17;11.77;;;17.80;99.90;;;;;;5050174;28;20024;-68
2022/09/01 02:56:10;;;;;;;26.52;12.77;;;17.70;99.90;;;;;;5048130;28;20030;-69
2022/09/01 02:58:45;;;;;;;27.83;15.35;;;17.70;99.90;;;;;;5029860;28;20113;-68
2022/09/01 03:01:12;;;;;;;33.75;14.52;;;17.70;99.90;;;;;;5030969;28;20028;-69
2022/09/01 03:03:38;;;;;;;30.13;13.93;;;17.60;99.90;;;;;;5053355;28;20485;-68
2022/09/01 03:06:03;;;;;;;26.35;13.48;;;17.60;99.90;;;;;;5047034;28;20028;-69
2022/09/01 03:08:35;;;;;;;25.55;12.88;;;17.60;99.90;;;;;;5046544;28;20477;-68
2022/09/01 03:11:01;;;;;;;26.30;13.25;;;17.60;99.90;;;;;;5049894;28;20025;-68
2022/09/01 03:13:28;;;;;;;29.88;13.68;;;17.50;99.90;;;;;;5045700;28;20047;-68
2022/09/01 03:15:54;;;;;;;22.92;13.60;;;17.50;99.90;;;;;;5046649;28;20060;-68
2022/09/01 03:18:19;;;;;;;35.55;14.70;;;17.50;99.90;;;;;;5031590;28;20402;-71
2022/09/01 03:20:46;;;;;;;27.45;13.93;;;17.40;99.90;;;;;;5041006;28;20033;-69
2022/09/01 03:23:14;;;;;;;26.50;15.23;;;17.40;99.90;;;;;;5040609;28;20021;-68
2022/09/01 03:25:42;;;;;;;30.85;15.98;;;17.40;99.90;;;;;;5041161;28;20605;-68
2022/09/01 03:28:11;;;;;;;29.73;16.50;;;17.30;99.90;;;;;;5046712;28;20033;-69
2022/09/01 03:30:42;;;;;;;32.72;16.30;;;17.30;99.90;;;;;;5045675;28;20116;-69
2022/09/01 03:33:09;;;;;;;34.20;18.70;;;17.30;99.90;;;;;;5047681;28;20128;-69
2022/09/01 03:35:35;;;;;;;36.72;19.08;;;17.30;99.90;;;;;;5048745;28;20047;-68
2022/09/01 03:38:02;;;;;;;38.42;17.10;;;17.30;99.90;;;;;;5039078;28;20098;-71
2022/09/01 03:40:31;;;;;;;35.00;19.55;;;17.30;99.90;;;;;;5047243;28;20028;-68
2022/09/01 03:43:05;;;;;;;37.50;18.30;;;17.20;99.90;;;;;;5045369;28;20095;-74
2022/09/01 03:45:37;;;;;;;34.97;18.88;;;17.10;99.90;;;;;;5046243;28;20554;-73
2022/09/01 03:48:07;;;;;;;35.30;19.37;;;17.10;99.90;;;;;;5050852;28;20116;-69
2022/09/01 03:50:43;;;;;;;40.60;19.63;;;17.10;99.90;;;;;;5039223;28;20029;-68
2022/09/01 03:53:10;;;;;;;41.28;22.00;;;17.10;99.90;;;;;;5042617;28;20389;-68
2022/09/01 03:55:37;;;;;;;41.13;21.95;;;17.00;99.90;;;;;;5028054;28;20025;-68
2022/09/01 03:58:06;;;;;;;45.95;24.00;;;17.00;99.90;;;;;;5043736;28;20048;-68
2022/09/01 04:00:38;;;;;;;47.15;23.30;;;17.00;99.90;;;;;;5047737;28;20033;-68
2022/09/01 04:03:07;;;;;;;49.78;24.35;;;17.00;99.90;;;;;;5045480;28;20021;-71
2022/09/01 04:05:34;;;;;;;41.35;22.35;;;17.00;99.90;;;;;;5028602;28;20049;-69
2022/09/01 04:08:04;;;;;;;46.92;25.88;;;16.90;99.90;;;;;;5040659;28;20052;-68
2022/09/01 04:10:37;;;;;;;51.90;26.23;;;16.90;99.90;;;;;;5049801;28;20477;-72
2022/09/01 04:13:04;;;;;;;55.70;27.85;;;16.90;99.90;;;;;;5041625;28;20064;-69
2022/09/01 04:15:33;;;;;;;58.45;28.42;;;16.80;99.90;;;;;;5041686;28;20029;-72
2022/09/01 04:18:19;;;;;;;52.83;26.95;;;16.80;99.90;;;;;;5037361;28;20136;-69
2022/09/01 04:21:05;;;;;;;63.95;28.55;;;16.80;99.90;;;;;;5044224;28;20021;-70
2022/09/01 04:23:34;;;;;;;64.10;32.95;;;16.80;99.90;;;;;;5025455;28;20385;-67
2022/09/01 04:26:07;;;;;;;65.60;32.55;;;16.80;99.90;;;;;;5030669;28;20436;-68
2022/09/01 04:28:37;;;;;;;75.05;35.92;;;16.80;99.90;;;;;;5026588;28;20036;-73
2022/09/01 04:31:08;;;;;;;72.95;35.42;;;16.70;99.90;;;;;;5047493;28;20032;-68
2022/09/01 04:33:38;;;;;;;72.25;35.22;;;16.70;99.90;;;;;;5039856;28;20025;-70
2022/09/01 04:36:13;;;;;;;69.13;36.38;;;16.70;99.90;;;;;;5040011;28;20072;-70
2022/09/01 04:38:38;;;;;;;76.22;39.15;;;16.60;99.90;;;;;;5023133;28;20864;-71
2022/09/01 04:41:05;;;;;;;72.47;35.50;;;16.70;99.90;;;;;;5044464;28;20022;-68
2022/09/01 04:43:34;;;;;;;76.15;34.45;;;16.60;99.90;;;;;;5041845;28;20029;-68
2022/09/01 04:46:02;;;;;;;65.05;33.67;;;16.50;99.90;;;;;;5047937;28;20029;-68
2022/09/01 04:48:27;;;;;;;62.78;33.55;;;16.50;99.90;;;;;;5039816;28;20504;-68
2022/09/01 04:50:55;;;;;;;69.35;35.33;;;16.60;99.90;;;;;;5039603;28;20030;-67
2022/09/01 04:53:20;;;;;;;69.70;35.80;;;16.60;99.90;;;;;;5046415;28;20025;-68
2022/09/01 04:55:46;;;;;;;70.65;36.55;;;16.60;99.90;;;;;;5038414;28;20128;-69
2022/09/01 04:58:16;;;;;;;71.47;37.83;;;16.60;99.90;;;;;;5042684;28;20105;-68
2022/09/01 05:00:46;;;;;;;66.75;35.20;;;16.60;99.90;;;;;;5047021;28;20028;-68
2022/09/01 05:03:12;;;;;;;68.13;36.03;;;16.60;99.90;;;;;;5043993;28;20036;-68
2022/09/01 05:05:41;;;;;;;68.85;34.30;;;16.60;99.90;;;;;;5040970;28;20037;-67
2022/09/01 05:08:13;;;;;;;75.25;35.72;;;16.60;99.90;;;;;;5039509;28;20387;-67
2022/09/01 05:10:51;;;;;;;73.78;39.78;;;16.60;99.90;;;;;;5045514;28;20032;-68
2022/09/01 05:13:17;;;;;;;72.40;35.65;;;16.50;99.90;;;;;;5044424;28;20489;-68
2022/09/01 05:15:45;;;;;;;63.13;33.00;;;16.50;99.90;;;;;;5040836;28;20034;-68
2022/09/01 05:18:23;;;;;;;66.65;34.17;;;16.40;99.90;;;;;;5041706;28;20040;-69
2022/09/01 05:20:52;;;;;;;64.88;33.33;;;16.40;99.90;;;;;;5045805;28;20099;-70
2022/09/01 05:23:18;;;;;;;74.13;35.95;;;16.50;99.90;;;;;;5037400;28;20048;-72
2022/09/01 05:25:47;;;;;;;58.92;34.15;;;16.50;99.90;;;;;;5040686;28;20075;-71
2022/09/01 05:28:14;;;;;;;67.55;34.28;;;16.50;99.90;;;;;;5042892;28;20025;-69
2022/09/01 05:30:41;;;;;;;65.32;33.67;;;16.40;99.90;;;;;;5043853;28;20037;-69
2022/09/01 05:33:10;;;;;;;65.70;34.72;;;16.50;99.90;;;;;;5046305;28;20095;-69
2022/09/01 05:35:43;;;;;;;65.47;31.25;;;16.40;99.90;;;;;;5041666;28;20099;-68
2022/09/01 05:38:14;;;;;;;62.80;32.72;;;16.40;99.90;;;;;;5042276;28;20025;-68
2022/09/01 05:40:42;;;;;;;56.97;32.03;;;16.40;99.90;;;;;;5044613;28;20022;-69
2022/09/01 05:43:11;;;;;;;66.40;31.77;;;16.40;99.90;;;;;;5050451;28;20064;-70
2022/09/01 05:45:42;;;;;;;55.60;29.08;;;16.30;99.90;;;;;;5041470;28;20022;-69
2022/09/01 05:48:11;;;;;;;60.80;29.85;;;16.40;99.90;;;;;;5053424;28;20032;-68
2022/09/01 05:50:41;;;;;;;57.65;30.15;;;16.40;99.90;;;;;;5046651;28;20021;-69
2022/09/01 05:53:16;;;;;;;56.65;27.17;;;16.40;99.90;;;;;;5050174;28;20067;-69
2022/09/01 05:55:45;;;;;;;56.10;29.33;;;16.40;99.90;;;;;;5043331;28;20037;-70
2022/09/01 05:58:16;;;;;;;56.90;27.95;;;16.40;99.90;;;;;;5049322;28;20439;-69
2022/09/01 06:00:43;;;;;;;58.67;29.42;;;16.40;99.90;;;;;;5028848;28;20024;-70
2022/09/01 06:03:10;;;;;;;58.83;27.25;;;16.50;99.90;;;;;;5042165;28;20113;-70
2022/09/01 06:05:36;;;;;;;53.88;27.13;;;16.50;99.90;;;;;;5046803;28;20029;-69
2022/09/01 06:08:04;;;;;;;53.30;26.40;;;16.50;99.90;;;;;;5045022;28;20052;-70
2022/09/01 06:10:31;;;;;;;54.85;28.63;;;16.50;99.90;;;;;;5043776;28;20051;-70
2022/09/01 06:13:01;;;;;;;59.63;28.02;;;16.50;99.90;;;;;;5049173;28;20025;-69
2022/09/01 06:15:31;;;;;;;54.00;27.70;;;16.50;99.90;;;;;;5039799;28;20033;-70
2022/09/01 06:17:57;;;;;;;57.92;28.40;;;16.60;99.90;;;;;;5049403;28;20048;-69
2022/09/01 06:20:24;;;;;;;53.33;26.50;;;16.50;99.90;;;;;;5042278;28;20029;-69
2022/09/01 06:22:52;;;;;;;51.95;27.33;;;16.60;99.90;;;;;;5049330;28;20039;-69
2022/09/01 06:25:19;;;;;;;47.30;24.08;;;16.50;99.90;;;;;;5042304;28;20025;-70
2022/09/01 06:27:46;;;;;;;47.25;25.50;;;16.60;99.90;;;;;;5043237;28;20047;-71
2022/09/01 06:30:16;;;;;;;46.28;23.13;;;16.50;99.90;;;;;;5048361;28;20113;-69
2022/09/01 06:32:43;;;;;;;51.58;22.85;;;16.60;99.90;;;;;;5052120;28;20021;-69
2022/09/01 06:35:14;;;;;;;43.40;23.42;;;16.60;99.90;;;;;;5055719;28;20037;-69
2022/09/01 06:37:44;;;;;;;45.83;22.17;;;16.60;99.90;;;;;;5055046;28;20036;-69
2022/09/01 06:40:16;;;;;;;38.35;21.27;;;16.70;99.90;;;;;;5033429;28;20022;-70
2022/09/01 06:42:47;;;;;;;37.57;16.63;;;16.70;99.90;;;;;;5050774;28;20483;-69
2022/09/01 06:45:19;;;;;;;36.08;18.05;;;16.80;99.90;;;;;;5051417;28;20021;-70
2022/09/01 06:47:50;;;;;;;29.70;16.02;;;16.70;99.90;;;;;;5031267;28;20374;-71
2022/09/01 06:50:20;;;;;;;36.03;18.23;;;16.80;99.90;;;;;;5054654;28;20540;-70
2022/09/01 06:52:49;;;;;;;27.80;14.98;;;16.80;99.90;;;;;;5061829;28;20017;-70
2022/09/01 06:55:15;;;;;;;29.80;14.43;;;16.80;99.90;;;;;;5050412;28;20485;-70
2022/09/01 06:57:50;;;;;;;28.83;14.48;;;16.90;99.90;;;;;;5048079;28;20373;-70
2022/09/01 07:00:19;;;;;;;26.92;14.45;;;16.90;99.90;;;;;;5056928;28;20193;-70
2022/09/01 07:02:53;;;;;;;24.98;13.82;;;17.00;99.90;;;;;;5056816;28;20022;-70
2022/09/01 07:05:20;;;;;;;27.13;15.07;;;17.00;99.90;;;;;;5038935;28;20029;-70
2022/09/01 07:07:50;;;;;;;29.33;14.95;;;17.10;99.90;;;;;;5044025;28;20032;-69
2022/09/01 07:10:21;;;;;;;26.83;13.63;;;17.10;99.90;;;;;;5040022;28;20032;-70
2022/09/01 07:12:48;;;;;;;31.27;14.85;;;17.10;99.90;;;;;;5038368;28;20373;-70
2022/09/01 07:15:16;;;;;;;18.08;10.35;;;17.10;99.90;;;;;;5047249;28;20485;-70
2022/09/01 07:17:47;;;;;;;18.77;11.13;;;17.20;99.90;;;;;;5038310;28;20017;-70
2022/09/01 07:20:14;;;;;;;16.98;8.73;;;17.20;99.90;;;;;;5055145;28;20029;-70
2022/09/01 07:22:40;;;;;;;13.23;6.20;;;17.20;99.90;;;;;;5050127;28;20427;-70
2022/09/01 07:25:06;;;;;;;6.53;5.38;;;17.30;99.90;;;;;;5048979;28;20057;-70
2022/09/01 07:27:32;;;;;;;9.77;6.43;;;17.30;99.90;;;;;;5056107;28;20024;-70
2022/09/01 07:29:58;;;;;;;15.60;7.20;;;17.40;99.90;;;;;;5045459;28;20393;-70
2022/09/01 07:32:24;;;;;;;9.00;5.00;;;17.50;99.90;;;;;;5046111;28;20033;-70
2022/09/01 07:34:51;;;;;;;10.18;7.15;;;17.60;99.90;;;;;;5047083;28;20479;-69
2022/09/01 07:37:17;;;;;;;9.48;5.72;;;17.70;99.90;;;;;;5043491;28;20025;-70
2022/09/01 07:39:46;;;;;;;13.73;6.38;;;17.70;99.90;;;;;;5039181;28;20029;-70
2022/09/01 07:42:11;;;;;;;10.48;5.72;;;17.80;99.90;;;;;;5046293;28;20072;-71
2022/09/01 07:44:37;;;;;;;7.53;5.15;;;17.90;99.90;;;;;;5029991;28;20052;-70
2022/09/01 07:47:08;;;;;;;6.53;4.70;;;18.00;99.90;;;;;;5047904;28;20025;-71
2022/09/01 07:49:36;;;;;;;7.03;4.55;;;18.20;99.90;;;;;;5041862;28;20486;-70
2022/09/01 07:52:04;;;;;;;9.85;4.72;;;18.30;99.90;;;;;;5043465;28;20063;-69
2022/09/01 07:54:30;;;;;;;5.60;4.60;;;18.40;99.90;;;;;;5043048;28;20469;-70
2022/09/01 07:56:55;;;;;;;9.52;4.80;;;18.50;99.90;;;;;;5043177;28;20035;-70
2022/09/01 07:59:21;;;;;;;6.88;4.30;;;18.70;99.90;;;;;;5044415;28;22050;-70
2022/09/01 08:01:48;;;;;;;6.13;3.50;;;18.80;99.90;;;;;;5022486;28;20397;-70
2022/09/01 08:04:14;;;;;;;5.00;3.50;;;18.90;99.90;;;;;;5045603;28;22292;-70
2022/09/01 08:06:39;;;;;;;6.43;3.50;;;19.10;99.90;;;;;;5046626;28;20047;-70
2022/09/01 08:09:09;;;;;;;8.75;3.45;;;19.20;99.90;;;;;;5047129;28;20032;-70
2022/09/01 08:11:35;;;;;;;8.88;3.92;;;19.40;99.90;;;;;;5053304;28;20032;-71
2022/09/01 08:14:01;;;;;;;6.85;3.30;;;19.50;99.90;;;;;;5053119;28;20044;-71
2022/09/01 08:16:29;;;;;;;5.20;3.78;;;19.60;99.90;;;;;;5036164;28;20493;-70
2022/09/01 08:18:55;;;;;;;4.40;4.00;;;19.70;99.90;;;;;;5044247;28;20025;-69
2022/09/01 08:21:23;;;;;;;4.47;2.95;;;19.90;99.90;;;;;;5050921;28;20476;-70
2022/09/01 08:23:50;;;;;;;7.70;3.88;;;20.00;99.90;;;;;;5052926;28;20024;-69
2022/09/01 08:26:18;;;;;;;5.85;3.53;;;20.20;99.90;;;;;;5059369;28;20127;-69
2022/09/01 08:28:44;;;;;;;6.82;3.78;;;20.20;99.90;;;;;;5041698;28;20021;-70
2022/09/01 08:31:14;;;;;;;12.48;3.80;;;20.40;99.90;;;;;;5037033;28;20662;-71
2022/09/01 08:33:41;;;;;;;6.32;3.45;;;20.40;99.90;;;;;;5040590;28;20031;-69
2022/09/01 08:36:09;;;;;;;16.08;4.03;;;20.60;99.90;;;;;;5044370;28;20017;-69
2022/09/01 08:38:35;;;;;;;7.88;3.60;;;20.70;99.90;;;;;;5039642;28;20025;-69
2022/09/01 08:41:02;;;;;;;9.68;4.20;;;20.80;99.90;;;;;;5045636;28;20032;-69
2022/09/01 08:43:49;;;;;;;8.13;3.55;;;20.80;99.90;;;;;;5040574;28;20037;-69
2022/09/01 08:46:33;;;;;;;7.70;3.45;;;20.90;99.90;;;;;;5045308;28;20044;-69
2022/09/01 08:49:06;;;;;;;5.57;3.35;;;20.90;99.90;;;;;;5037785;28;20120;-70
2022/09/01 08:51:51;;;;;;;;;;;21.10;99.90;;;;;;5048187;28;20025;-68
2022/09/01 08:54:39;;;;;;;9.80;3.55;;;21.30;99.90;;;;;;5023327;28;20353;-69
2022/09/01 08:57:14;;;;;;;6.97;3.60;;;21.40;99.90;;;;;;5042718;28;20543;-69
2022/09/01 08:59:40;;;;;;;4.15;3.10;;;21.60;99.90;;;;;;5045942;28;20057;-68
2022/09/01 09:02:37;;;;;;;4.18;3.25;;;21.80;99.90;;;;;;5054581;28;20084;-69
2022/09/01 09:05:34;;;;;;;7.78;3.60;;;21.90;99.90;;;;;;5046084;28;20547;-70
2022/09/01 09:08:32;;;;;;;7.03;3.45;;;21.90;99.90;;;;;;5044178;28;20109;-69
2022/09/01 09:11:13;;;;;;;9.00;4.13;;;22.10;99.90;;;;;;5047521;28;20025;-69
2022/09/01 09:13:54;;;;;;;7.53;3.58;;;22.20;99.90;;;;;;5045446;28;20028;-71
2022/09/01 09:16:27;;;;;;;7.22;3.45;;;22.50;99.90;;;;;;5040939;28;20029;-71
2022/09/01 09:19:01;;;;;;;8.52;3.42;;;22.60;99.90;;;;;;5049254;28;20029;-71
2022/09/01 09:21:35;;;;;;;21.35;4.25;;;22.70;99.90;;;;;;5042809;28;20021;-70
2022/09/01 09:24:27;;;;;;;6.75;2.85;;;22.70;99.90;;;;;;5049696;28;20017;-70
2022/09/01 09:26:57;;;;;;;8.07;2.97;;;23.00;99.90;;;;;;5039699;28;20037;-69
2022/09/01 09:29:24;;;;;;;6.22;3.00;;;23.10;99.90;;;;;;5028163;28;20025;-71
2022/09/01 09:32:09;;;;;;;7.63;2.47;;;23.30;99.90;;;;;;5051673;28;20033;-69
2022/09/01 09:34:40;;;;;;;6.15;2.72;;;23.40;99.90;;;;;;5044933;28;20498;-69
2022/09/01 09:37:21;;;;;;;6.22;2.47;;;23.40;98.30;;;;;;5050076;28;20052;-68
2022/09/01 09:40:09;;;;;;;3.72;2.00;;;23.50;98.40;;;;;;5042969;28;20029;-70
2022/09/01 09:42:41;;;;;;;3.38;2.28;;;23.60;99.60;;;;;;5046805;28;20029;-70
2022/09/01 09:45:33;;;;;;;3.20;2.22;;;23.80;99.70;;;;;;5050948;28;20024;-68
2022/09/01 09:48:03;;;;;;;5.30;2.10;;;23.90;98.20;;;;;;5035478;28;20528;-71
2022/09/01 09:50:34;;;;;;;4.68;2.40;;;24.00;97.60;;;;;;5021144;28;20088;-72
2022/09/01 09:53:17;;;;;;;4.75;2.67;;;24.20;98.60;;;;;;5049365;28;20025;-71
2022/09/01 09:55:54;;;;;;;2.58;2.03;;;24.30;96.50;;;;;;5045112;28;20370;-70
2022/09/01 09:58:25;;;;;;;3.05;2.25;;;24.70;98.40;;;;;;5042989;28;20532;-70
2022/09/01 10:01:14;;;;;;;2.92;2.03;;;24.50;95.80;;;;;;5043617;28;20026;-71
2022/09/01 10:03:48;;;;;;;5.68;2.20;;;24.40;96.00;;;;;;5047567;28;20080;-71
2022/09/01 10:06:37;;;;;;;3.13;1.70;;;24.60;95.40;;;;;;5044916;28;20036;-73
2022/09/01 10:09:13;;;;;;;5.78;2.00;;;24.90;96.20;;;;;;5053448;28;20028;-70
2022/09/01 10:11:42;;;;;;;1.80;1.40;;;24.90;95.00;;;;;;5034316;28;20120;-71
2022/09/01 10:14:15;;;;;;;1.25;1.15;;;25.10;96.10;;;;;;5045191;28;20051;-70
2022/09/01 10:16:42;;;;;;;3.53;1.77;;;25.40;95.50;;;;;;5049150;28;20480;-69
2022/09/01 10:19:12;;;;;;;4.32;1.77;;;25.60;95.80;;;;;;5032217;28;20032;-68
2022/09/01 10:21:40;;;;;;;3.33;1.33;;;25.40;94.50;;;;;;5046259;28;20021;-70
2022/09/01 10:24:29;;;;;;;2.95;1.42;;;25.80;93.70;;;;;;5045866;28;20052;-70
2022/09/01 10:27:01;;;;;;;2.63;1.50;;;26.10;94.00;;;;;;5050365;28;20032;-70
2022/09/01 10:29:33;;;;;;;;;;;26.20;93.20;;;;;;5046919;28;20391;-69
2022/09/01 10:32:01;;;;;;;2.40;1.55;;;25.90;92.50;;;;;;5043439;28;20389;-69
2022/09/01 10:34:33;;;;;;;4.28;1.70;;;25.50;92.80;;;;;;5051690;28;20126;-70
2022/09/01 10:36:59;;;;;;;3.00;1.70;;;25.20;94.80;;;;;;5048399;28;20374;-74
2022/09/01 10:39:25;;;;;;;4.68;1.60;;;25.00;93.00;;;;;;5050015;28;20029;-71
2022/09/01 10:41:55;;;;;;;2.95;1.40;;;24.90;94.40;;;;;;5040633;28;20025;-69
2022/09/01 10:44:32;;;;;;;4.82;1.70;;;24.60;93.00;;;;;;5045062;28;20021;-69
2022/09/01 10:47:02;;;;;;;2.15;1.25;;;24.40;94.30;;;;;;5045470;28;20136;-68
2022/09/01 10:49:28;;;;;;;6.25;1.40;;;24.30;92.90;;;;;;5048948;28;20545;-71
2022/09/01 10:51:58;;;;;;;3.83;1.40;;;24.40;91.90;;;;;;5050573;28;20111;-68
2022/09/01 10:54:39;;;;;;;3.90;1.50;;;24.30;91.70;;;;;;5046876;28;20045;-70
2022/09/01 10:57:36;;;;;;;3.90;1.23;;;24.20;92.70;;;;;;5038718;28;20065;-69
2022/09/01 11:00:22;;;;;;;3.35;1.58;;;24.20;93.60;;;;;;5044553;28;20091;-69
2022/09/01 11:03:09;;;;;;;1.92;1.08;;;24.10;92.60;;;;;;5050017;28;20485;-69
2022/09/01 11:05:53;;;;;;;5.85;1.33;;;24.40;93.20;;;;;;5042359;28;20488;-69
2022/09/01 11:08:28;;;;;;;2.92;1.42;;;24.80;92.00;;;;;;5045229;28;20088;-70
2022/09/01 11:11:38;;;;;;;3.88;1.20;;;25.10;92.00;;;;;;5035741;28;20488;-69
2022/09/01 11:14:21;;;;;;;2.28;1.17;;;25.40;91.80;;;;;;4942579;29;20060;-71
2022/09/01 11:17:16;;;;;;;2.55;1.58;;;25.60;89.00;;;;;;4949467;29;20506;-68
2022/09/01 11:20:09;;;;;;;4.53;1.80;;;25.70;90.40;;;;;;5018919;28;20034;-68
2022/09/01 11:22:45;;;;;;;;;;;25.80;90.90;;;;;;5046134;28;20037;-69
2022/09/01 11:25:43;;;;;;;1.60;1.50;;;25.90;91.20;;;;;;5042441;28;20353;-68
2022/09/01 11:28:09;;;;;;;3.85;1.25;;;26.10;89.40;;;;;;5040835;28;20393;-68
2022/09/01 11:31:04;;;;;;;5.22;1.27;;;26.20;89.10;;;;;;5042925;28;20021;-69
2022/09/01 11:33:49;;;;;;;3.60;1.35;;;26.30;87.90;;;;;;5049149;28;20389;-68
2022/09/01 11:36:30;;;;;;;2.45;1.30;;;26.30;89.00;;;;;;5045648;28;20041;-68
2022/09/01 11:39:25;;;;;;;3.05;1.50;;;26.40;89.70;;;;;;5027809;28;20477;-68
2022/09/01 11:42:02;;;;;;;4.40;1.75;;;26.50;86.90;;;;;;5046538;28;20040;-69
2022/09/01 11:44:43;;;;;;;5.15;1.40;;;26.60;91.00;;;;;;5043323;28;20025;-68
2022/09/01 11:47:36;;;;;;;6.43;1.35;;;26.80;88.50;;;;;;5042028;28;20029;-69
2022/09/01 11:50:16;;;;;;;6.53;1.67;;;26.80;84.20;;;;;;5034715;28;20069;-69
2022/09/01 11:52:50;;;;;;;3.03;1.85;;;27.00;87.00;;;;;;5041237;28;20583;-69
2022/09/01 11:55:29;;;;;;;2.67;1.48;;;27.30;87.70;;;;;;5044996;28;20029;-70
2022/09/01 11:57:55;;;;;;;2.00;1.30;;;27.10;83.00;;;;;;5042551;28;20349;-69
2022/09/01 12:00:37;;;;;;;2.13;1.65;;;27.10;84.80;;;;;;5053135;28;20107;-69
2022/09/01 12:03:22;;;;;;;3.50;1.00;;;27.10;84.60;;;;;;5044074;28;20033;-68
2022/09/01 12:05:58;;;;;;;2.92;1.40;;;27.10;84.70;;;;;;5045020;28;20032;-70
2022/09/01 12:08:26;;;;;;;1.75;1.27;;;27.50;90.70;;;;;;5041387;28;20040;-69
2022/09/01 12:11:02;;;;;;;4.90;1.40;;;27.70;86.20;;;;;;5040797;28;20028;-69
2022/09/01 12:13:28;;;;;;;3.22;1.33;;;27.70;80.20;;;;;;5046372;28;20112;-69
2022/09/01 12:15:57;;;;;;;2.78;1.10;;;28.00;85.00;;;;;;5039649;28;20124;-69
2022/09/01 12:18:26;;;;;;;4.15;1.25;;;27.50;82.70;;;;;;5047782;28;20034;-69
2022/09/01 12:20:55;;;;;;;2.08;1.58;;;27.40;81.60;;;;;;5045966;28;20100;-68
2022/09/01 12:23:47;;;;;;;1.70;1.10;;;27.20;82.10;;;;;;5045320;28;20084;-71
2022/09/01 12:26:16;;;;;;;7.25;1.20;;;27.30;80.40;;;;;;5048204;28;20122;-70
2022/09/01 12:28:52;;;;;;;2.28;1.10;;;27.40;83.30;;;;;;5049815;28;20028;-69
2022/09/01 12:31:25;;;;;;;2.78;1.30;;;27.30;79.60;;;;;;5046418;28;20037;-69
2022/09/01 12:33:53;;;;;;;1.70;1.17;;;27.30;84.90;;;;;;5030315;28;20021;-69
2022/09/01 12:36:23;;;;;;;5.03;1.42;;;27.00;80.80;;;;;;5044507;28;20497;-69
2022/09/01 12:38:50;;;;;;;2.22;1.17;;;27.20;81.10;;;;;;5040531;28;20108;-69
2022/09/01 12:41:38;;;;;;;5.13;1.23;;;27.30;81.00;;;;;;5043963;28;20036;-70
2022/09/01 12:44:36;;;;;;;4.18;1.27;;;27.30;83.40;;;;;;5044751;28;20029;-69
2022/09/01 12:47:06;;;;;;;1.85;1.38;;;27.50;83.10;;;;;;5028387;28;20558;-69
2022/09/01 12:49:37;;;;;;;4.20;1.20;;;27.50;81.50;;;;;;5046726;28;20030;-69
2022/09/01 12:52:18;;;;;;;1.50;0.95;;;27.50;83.30;;;;;;5045237;28;20107;-68
2022/09/01 12:54:46;;;;;;;5.72;1.02;;;27.60;77.20;;;;;;5045287;28;20037;-68
2022/09/01 12:57:26;;;;;;;4.53;1.45;;;27.50;78.20;;;;;;5042297;28;20534;-69
2022/09/01 13:00:14;;;;;;;3.75;1.20;;;27.70;76.70;;;;;;5045927;28;20025;-70
2022/09/01 13:02:43;;;;;;;5.70;1.13;;;27.70;78.60;;;;;;5036645;28;20029;-68
2022/09/01 13:05:29;;;;;;;6.57;1.58;;;27.60;75.10;;;;;;5042021;28;20036;-69
2022/09/01 13:07:57;;;;;;;1.55;1.10;;;27.70;79.40;;;;;;5035762;28;20084;-69